sensor_id;sensor_type;location;lat;lon;timestamp;P1;durP1;ratioP1;P2;durP2;ratioP2
62121;SDS011;48108;47.532;19.084;2023-10-19T03:57:22;25.12;;;14.02;;
62121;SDS011;48108;47.532;19.084;2023-10-19T04:00:26;23.65;;;12.68;;
62121;SDS011;48108;47.532;19.084;2023-10-19T04:03:32;24.98;;;13.18;;
62121;SDS011;48108;47.532;19.084;2023-10-19T04:06:35;24.20;;;14.18;;
62121;SDS011;48108;47.532;19.084;2023-10-19T04:09:39;26.42;;;13.85;;
62121;SDS011;48108;47.532;19.084;2023-10-19T04:13:00;26.08;;;13.57;;
62121;SDS011;48108;47.532;19.084;2023-10-19T04:16:03;24.08;;;13.05;;
62121;SDS011;48108;47.532;19.084;2023-10-19T04:19:08;36.13;;;14.40;;
62121;SDS011;48108;47.532;19.084;2023-10-19T04:22:12;24.58;;;13.15;;
62121;SDS011;48108;47.532;19.084;2023-10-19T04:25:24;21.40;;;13.02;;
62121;SDS011;48108;47.532;19.084;2023-10-19T04:28:29;25.62;;;13.57;;
62121;SDS011;48108;47.532;19.084;2023-10-19T04:31:41;26.17;;;13.35;;
62121;SDS011;48108;47.532;19.084;2023-10-19T04:34:52;26.08;;;13.98;;
62121;SDS011;48108;47.532;19.084;2023-10-19T04:37:55;26.50;;;13.68;;
62121;SDS011;48108;47.532;19.084;2023-10-19T04:41:06;22.27;;;12.98;;
62121;SDS011;48108;47.532;19.084;2023-10-19T04:44:10;26.80;;;14.23;;
62121;SDS011;48108;47.532;19.084;2023-10-19T04:47:13;29.92;;;14.93;;
62121;SDS011;48108;47.532;19.084;2023-10-19T04:50:16;20.88;;;12.35;;
62121;SDS011;48108;47.532;19.084;2023-10-19T04:53:19;27.02;;;14.35;;
62121;SDS011;48108;47.532;19.084;2023-10-19T04:56:22;26.23;;;13.95;;
62121;SDS011;48108;47.532;19.084;2023-10-19T04:59:25;23.92;;;13.20;;
62121;SDS011;48108;47.532;19.084;2023-10-19T05:02:28;23.80;;;14.02;;
62121;SDS011;48108;47.532;19.084;2023-10-19T05:05:32;24.83;;;13.75;;
62121;SDS011;48108;47.532;19.084;2023-10-19T05:08:34;22.05;;;12.35;;
62121;SDS011;48108;47.532;19.084;2023-10-19T05:11:39;22.73;;;13.18;;
62121;SDS011;48108;47.532;19.084;2023-10-19T05:14:42;24.55;;;12.25;;
62121;SDS011;48108;47.532;19.084;2023-10-19T05:17:46;22.85;;;12.75;;
62121;SDS011;48108;47.532;19.084;2023-10-19T05:20:50;22.13;;;11.90;;
62121;SDS011;48108;47.532;19.084;2023-10-19T05:23:57;21.30;;;11.52;;
62121;SDS011;48108;47.532;19.084;2023-10-19T05:27:03;19.08;;;11.43;;
62121;SDS011;48108;47.532;19.084;2023-10-19T05:30:07;24.27;;;12.18;;
62121;SDS011;48108;47.532;19.084;2023-10-19T05:33:13;26.80;;;13.25;;
62121;SDS011;48108;47.532;19.084;2023-10-19T05:36:18;17.58;;;10.77;;
62121;SDS011;48108;47.532;19.084;2023-10-19T05:39:21;25.20;;;11.95;;
62121;SDS011;48108;47.532;19.084;2023-10-19T05:42:30;25.97;;;11.47;;
62121;SDS011;48108;47.532;19.084;2023-10-19T05:45:33;24.35;;;12.48;;
62121;SDS011;48108;47.532;19.084;2023-10-19T05:48:41;21.52;;;12.13;;
62121;SDS011;48108;47.532;19.084;2023-10-19T05:51:44;23.95;;;13.23;;
62121;SDS011;48108;47.532;19.084;2023-10-19T05:54:47;27.23;;;11.93;;
62121;SDS011;48108;47.532;19.084;2023-10-19T05:57:51;23.45;;;12.70;;
62121;SDS011;48108;47.532;19.084;2023-10-19T06:00:57;21.30;;;12.35;;
62121;SDS011;48108;47.532;19.084;2023-10-19T06:04:01;25.73;;;12.15;;
62121;SDS011;48108;47.532;19.084;2023-10-19T06:07:04;22.00;;;12.40;;
62121;SDS011;48108;47.532;19.084;2023-10-19T06:10:10;24.45;;;13.30;;
62121;SDS011;48108;47.532;19.084;2023-10-19T06:13:18;22.30;;;11.95;;
62121;SDS011;48108;47.532;19.084;2023-10-19T06:16:22;23.12;;;12.77;;
62121;SDS011;48108;47.532;19.084;2023-10-19T06:19:25;24.27;;;12.93;;
62121;SDS011;48108;47.532;19.084;2023-10-19T06:22:28;27.40;;;13.55;;
62121;SDS011;48108;47.532;19.084;2023-10-19T06:25:31;23.95;;;13.00;;
62121;SDS011;48108;47.532;19.084;2023-10-19T06:28:38;28.70;;;12.90;;
62121;SDS011;48108;47.532;19.084;2023-10-19T06:31:43;26.15;;;12.57;;
62121;SDS011;48108;47.532;19.084;2023-10-19T06:34:47;25.58;;;12.43;;
62121;SDS011;48108;47.532;19.084;2023-10-19T06:37:50;21.05;;;12.95;;
62121;SDS011;48108;47.532;19.084;2023-10-19T06:40:55;25.37;;;13.13;;
62121;SDS011;48108;47.532;19.084;2023-10-19T06:43:58;31.62;;;13.50;;
62121;SDS011;48108;47.532;19.084;2023-10-19T06:47:02;27.50;;;14.13;;
62121;SDS011;48108;47.532;19.084;2023-10-19T06:50:05;27.75;;;14.00;;
62121;SDS011;48108;47.532;19.084;2023-10-19T06:53:11;25.75;;;13.82;;
62121;SDS011;48108;47.532;19.084;2023-10-19T06:56:13;29.27;;;14.18;;
62121;SDS011;48108;47.532;19.084;2023-10-19T06:59:19;26.17;;;12.82;;
62121;SDS011;48108;47.532;19.084;2023-10-19T07:02:21;23.25;;;13.05;;
62121;SDS011;48108;47.532;19.084;2023-10-19T07:05:25;27.20;;;14.65;;
62121;SDS011;48108;47.532;19.084;2023-10-19T07:08:32;26.15;;;13.27;;
62121;SDS011;48108;47.532;19.084;2023-10-19T07:11:35;22.67;;;12.40;;
62121;SDS011;48108;47.532;19.084;2023-10-19T07:14:38;22.85;;;12.73;;
62121;SDS011;48108;47.532;19.084;2023-10-19T07:17:43;23.45;;;12.95;;
62121;SDS011;48108;47.532;19.084;2023-10-19T07:20:46;21.83;;;10.75;;
62121;SDS011;48108;47.532;19.084;2023-10-19T07:23:51;24.45;;;12.60;;
62121;SDS011;48108;47.532;19.084;2023-10-19T07:26:56;19.42;;;10.60;;
62121;SDS011;48108;47.532;19.084;2023-10-19T07:30:24;17.87;;;10.87;;
62121;SDS011;48108;47.532;19.084;2023-10-19T07:33:30;19.83;;;10.75;;
62121;SDS011;48108;47.532;19.084;2023-10-19T07:36:33;20.67;;;11.57;;
62121;SDS011;48108;47.532;19.084;2023-10-19T07:39:39;21.02;;;12.00;;
62121;SDS011;48108;47.532;19.084;2023-10-19T07:42:45;18.83;;;11.25;;
62121;SDS011;48108;47.532;19.084;2023-10-19T07:45:49;19.40;;;10.93;;
62121;SDS011;48108;47.532;19.084;2023-10-19T07:48:52;20.23;;;12.20;;
62121;SDS011;48108;47.532;19.084;2023-10-19T07:51:55;16.33;;;10.65;;
62121;SDS011;48108;47.532;19.084;2023-10-19T07:55:00;19.05;;;10.90;;
62121;SDS011;48108;47.532;19.084;2023-10-19T07:58:04;23.00;;;11.32;;
62121;SDS011;48108;47.532;19.084;2023-10-19T08:01:09;20.92;;;11.50;;
62121;SDS011;48108;47.532;19.084;2023-10-19T08:04:14;16.73;;;9.57;;
62121;SDS011;48108;47.532;19.084;2023-10-19T08:07:17;18.62;;;10.25;;
62121;SDS011;48108;47.532;19.084;2023-10-19T08:10:21;19.23;;;11.55;;
62121;SDS011;48108;47.532;19.084;2023-10-19T08:13:24;22.37;;;10.85;;
62121;SDS011;48108;47.532;19.084;2023-10-19T08:16:32;20.88;;;10.85;;
62121;SDS011;48108;47.532;19.084;2023-10-19T08:19:35;24.23;;;10.52;;
62121;SDS011;48108;47.532;19.084;2023-10-19T08:22:38;20.85;;;10.98;;
62121;SDS011;48108;47.532;19.084;2023-10-19T08:25:42;19.33;;;10.98;;
62121;SDS011;48108;47.532;19.084;2023-10-19T08:28:58;18.87;;;10.63;;
62121;SDS011;48108;47.532;19.084;2023-10-19T08:32:01;21.05;;;11.68;;
62121;SDS011;48108;47.532;19.084;2023-10-19T08:35:05;19.30;;;10.25;;
62121;SDS011;48108;47.532;19.084;2023-10-19T08:38:08;21.45;;;11.40;;
62121;SDS011;48108;47.532;19.084;2023-10-19T08:41:14;19.27;;;11.48;;
62121;SDS011;48108;47.532;19.084;2023-10-19T08:44:19;19.50;;;10.75;;
62121;SDS011;48108;47.532;19.084;2023-10-19T08:47:22;20.35;;;10.55;;
62121;SDS011;48108;47.532;19.084;2023-10-19T08:50:28;20.42;;;12.00;;
62121;SDS011;48108;47.532;19.084;2023-10-19T08:53:32;17.10;;;10.50;;
62121;SDS011;48108;47.532;19.084;2023-10-19T08:56:43;18.17;;;10.77;;
62121;SDS011;48108;47.532;19.084;2023-10-19T08:59:47;22.85;;;11.73;;
62121;SDS011;48108;47.532;19.084;2023-10-19T09:02:49;25.30;;;11.23;;
62121;SDS011;48108;47.532;19.084;2023-10-19T09:05:54;21.62;;;11.12;;
62121;SDS011;48108;47.532;19.084;2023-10-19T09:08:57;20.77;;;11.38;;
62121;SDS011;48108;47.532;19.084;2023-10-19T09:12:03;16.95;;;10.35;;
62121;SDS011;48108;47.532;19.084;2023-10-19T09:15:06;19.23;;;10.85;;
62121;SDS011;48108;47.532;19.084;2023-10-19T09:18:26;17.83;;;10.13;;
62121;SDS011;48108;47.532;19.084;2023-10-19T09:21:31;19.87;;;11.25;;
62121;SDS011;48108;47.532;19.084;2023-10-19T09:24:35;17.27;;;10.45;;
62121;SDS011;48108;47.532;19.084;2023-10-19T09:27:39;17.10;;;10.98;;
62121;SDS011;48108;47.532;19.084;2023-10-19T09:30:43;19.95;;;10.90;;
62121;SDS011;48108;47.532;19.084;2023-10-19T09:33:46;17.20;;;10.55;;
62121;SDS011;48108;47.532;19.084;2023-10-19T09:36:51;17.33;;;11.05;;
62121;SDS011;48108;47.532;19.084;2023-10-19T09:39:55;18.00;;;10.88;;
62121;SDS011;48108;47.532;19.084;2023-10-19T09:42:59;18.27;;;11.60;;
62121;SDS011;48108;47.532;19.084;2023-10-19T09:46:09;17.58;;;10.00;;
62121;SDS011;48108;47.532;19.084;2023-10-19T09:49:16;17.98;;;10.50;;
62121;SDS011;48108;47.532;19.084;2023-10-19T09:52:20;18.35;;;10.82;;
62121;SDS011;48108;47.532;19.084;2023-10-19T09:55:28;18.98;;;11.25;;
62121;SDS011;48108;47.532;19.084;2023-10-19T09:58:36;18.73;;;10.93;;
62121;SDS011;48108;47.532;19.084;2023-10-19T10:08:45;18.12;;;10.25;;
62121;SDS011;48108;47.532;19.084;2023-10-19T10:11:49;20.92;;;10.88;;
62121;SDS011;48108;47.532;19.084;2023-10-19T10:18:11;18.92;;;10.75;;
62121;SDS011;48108;47.532;19.084;2023-10-19T10:21:17;18.40;;;11.40;;
62121;SDS011;48108;47.532;19.084;2023-10-19T10:24:26;19.08;;;11.60;;
62121;SDS011;48108;47.532;19.084;2023-10-19T10:27:29;19.50;;;11.00;;
62121;SDS011;48108;47.532;19.084;2023-10-19T10:30:33;19.73;;;11.52;;
62121;SDS011;48108;47.532;19.084;2023-10-19T10:33:46;19.12;;;10.73;;
62121;SDS011;48108;47.532;19.084;2023-10-19T10:37:06;18.62;;;10.73;;
62121;SDS011;48108;47.532;19.084;2023-10-19T10:40:15;19.77;;;11.48;;
62121;SDS011;48108;47.532;19.084;2023-10-19T10:43:19;20.92;;;11.18;;
62121;SDS011;48108;47.532;19.084;2023-10-19T10:46:25;17.25;;;10.85;;
62121;SDS011;48108;47.532;19.084;2023-10-19T10:49:31;20.12;;;10.85;;
62121;SDS011;48108;47.532;19.084;2023-10-19T10:52:36;18.23;;;11.12;;
62121;SDS011;48108;47.532;19.084;2023-10-19T10:55:39;19.58;;;11.73;;
62121;SDS011;48108;47.532;19.084;2023-10-19T10:58:43;19.10;;;11.20;;
62121;SDS011;48108;47.532;19.084;2023-10-19T11:01:47;22.90;;;12.73;;
62121;SDS011;48108;47.532;19.084;2023-10-19T11:04:51;18.48;;;11.43;;
62121;SDS011;48108;47.532;19.084;2023-10-19T11:11:07;20.35;;;12.05;;
62121;SDS011;48108;47.532;19.084;2023-10-19T11:14:13;22.85;;;11.70;;
62121;SDS011;48108;47.532;19.084;2023-10-19T11:17:16;20.95;;;12.15;;
62121;SDS011;48108;47.532;19.084;2023-10-19T11:20:23;18.80;;;12.25;;
62121;SDS011;48108;47.532;19.084;2023-10-19T11:23:34;19.70;;;11.95;;
62121;SDS011;48108;47.532;19.084;2023-10-19T11:26:59;22.87;;;12.60;;
62121;SDS011;48108;47.532;19.084;2023-10-19T11:30:03;23.40;;;12.60;;
62121;SDS011;48108;47.532;19.084;2023-10-19T11:33:07;22.17;;;12.57;;
62121;SDS011;48108;47.532;19.084;2023-10-19T11:36:12;20.42;;;11.55;;
62121;SDS011;48108;47.532;19.084;2023-10-19T11:39:15;22.55;;;12.43;;
62121;SDS011;48108;47.532;19.084;2023-10-19T11:42:18;20.20;;;12.57;;
62121;SDS011;48108;47.532;19.084;2023-10-19T11:45:21;22.15;;;13.75;;
62121;SDS011;48108;47.532;19.084;2023-10-19T11:48:26;22.10;;;12.23;;
62121;SDS011;48108;47.532;19.084;2023-10-19T11:51:29;22.02;;;12.80;;
62121;SDS011;48108;47.532;19.084;2023-10-19T11:54:34;22.00;;;14.35;;
62121;SDS011;48108;47.532;19.084;2023-10-19T11:57:44;21.62;;;12.90;;
62121;SDS011;48108;47.532;19.084;2023-10-19T12:00:47;24.35;;;12.93;;
62121;SDS011;48108;47.532;19.084;2023-10-19T12:03:51;22.27;;;13.98;;
62121;SDS011;48108;47.532;19.084;2023-10-19T12:06:54;25.10;;;13.68;;
62121;SDS011;48108;47.532;19.084;2023-10-19T12:09:57;20.75;;;13.50;;
62121;SDS011;48108;47.532;19.084;2023-10-19T12:13:04;20.67;;;13.52;;
62121;SDS011;48108;47.532;19.084;2023-10-19T12:16:11;22.60;;;13.20;;
62121;SDS011;48108;47.532;19.084;2023-10-19T12:19:22;19.33;;;13.45;;
62121;SDS011;48108;47.532;19.084;2023-10-19T12:22:26;23.40;;;12.93;;
62121;SDS011;48108;47.532;19.084;2023-10-19T12:25:38;19.17;;;12.80;;
62121;SDS011;48108;47.532;19.084;2023-10-19T12:28:58;21.20;;;12.93;;
62121;SDS011;48108;47.532;19.084;2023-10-19T12:32:01;23.87;;;14.10;;
62121;SDS011;48108;47.532;19.084;2023-10-19T12:35:04;22.13;;;13.73;;
62121;SDS011;48108;47.532;19.084;2023-10-19T12:38:14;21.90;;;13.85;;
62121;SDS011;48108;47.532;19.084;2023-10-19T12:41:20;23.83;;;13.32;;
62121;SDS011;48108;47.532;19.084;2023-10-19T12:44:24;24.85;;;13.48;;
62121;SDS011;48108;47.532;19.084;2023-10-19T12:47:45;23.80;;;13.38;;
62121;SDS011;48108;47.532;19.084;2023-10-19T12:50:48;21.37;;;13.48;;
62121;SDS011;48108;47.532;19.084;2023-10-19T12:53:51;26.67;;;14.95;;
62121;SDS011;48108;47.532;19.084;2023-10-19T12:56:55;25.35;;;15.15;;
62121;SDS011;48108;47.532;19.084;2023-10-19T12:59:58;25.00;;;13.43;;
62121;SDS011;48108;47.532;19.084;2023-10-19T13:03:10;27.23;;;13.62;;
62121;SDS011;48108;47.532;19.084;2023-10-19T13:06:16;25.30;;;15.23;;
62121;SDS011;48108;47.532;19.084;2023-10-19T13:09:19;24.98;;;14.40;;
62121;SDS011;48108;47.532;19.084;2023-10-19T13:12:26;27.10;;;14.68;;
62121;SDS011;48108;47.532;19.084;2023-10-19T13:15:33;27.75;;;13.50;;
62121;SDS011;48108;47.532;19.084;2023-10-19T13:18:41;24.52;;;14.27;;
62121;SDS011;48108;47.532;19.084;2023-10-19T13:21:44;29.50;;;15.00;;
62121;SDS011;48108;47.532;19.084;2023-10-19T13:24:47;26.08;;;13.18;;
62121;SDS011;48108;47.532;19.084;2023-10-19T13:27:51;32.25;;;13.88;;
62121;SDS011;48108;47.532;19.084;2023-10-19T13:30:54;27.05;;;15.10;;
62121;SDS011;48108;47.532;19.084;2023-10-19T13:33:57;24.45;;;13.30;;
62121;SDS011;48108;47.532;19.084;2023-10-19T13:37:02;23.77;;;12.93;;
62121;SDS011;48108;47.532;19.084;2023-10-19T13:40:05;30.88;;;16.62;;
62121;SDS011;48108;47.532;19.084;2023-10-19T13:43:09;21.60;;;13.05;;
62121;SDS011;48108;47.532;19.084;2023-10-19T13:46:16;24.30;;;13.52;;
62121;SDS011;48108;47.532;19.084;2023-10-19T13:49:20;28.92;;;15.32;;
62121;SDS011;48108;47.532;19.084;2023-10-19T13:52:25;28.80;;;14.68;;
62121;SDS011;48108;47.532;19.084;2023-10-19T13:55:28;36.53;;;16.02;;
62121;SDS011;48108;47.532;19.084;2023-10-19T13:58:31;47.92;;;18.30;;
62121;SDS011;48108;47.532;19.084;2023-10-19T14:01:36;36.67;;;15.95;;
62121;SDS011;48108;47.532;19.084;2023-10-19T14:04:39;34.47;;;15.75;;
62121;SDS011;48108;47.532;19.084;2023-10-19T14:07:42;33.55;;;14.38;;
62121;SDS011;48108;47.532;19.084;2023-10-19T14:10:46;27.55;;;14.93;;
62121;SDS011;48108;47.532;19.084;2023-10-19T14:13:49;32.97;;;14.85;;
62121;SDS011;48108;47.532;19.084;2023-10-19T14:16:55;30.33;;;14.87;;
62121;SDS011;48108;47.532;19.084;2023-10-19T14:19:58;38.75;;;16.05;;
62121;SDS011;48108;47.532;19.084;2023-10-19T14:23:01;35.92;;;16.77;;
62121;SDS011;48108;47.532;19.084;2023-10-19T14:26:07;27.23;;;14.23;;
62121;SDS011;48108;47.532;19.084;2023-10-19T14:29:12;29.98;;;13.75;;
62121;SDS011;48108;47.532;19.084;2023-10-19T14:32:16;34.05;;;14.87;;
62121;SDS011;48108;47.532;19.084;2023-10-19T14:35:20;80.43;;;22.98;;
62121;SDS011;48108;47.532;19.084;2023-10-19T14:38:24;46.03;;;17.30;;
62121;SDS011;48108;47.532;19.084;2023-10-19T14:41:30;30.17;;;13.85;;
62121;SDS011;48108;47.532;19.084;2023-10-19T14:44:33;27.75;;;14.82;;
62121;SDS011;48108;47.532;19.084;2023-10-19T14:47:40;26.80;;;13.68;;
62121;SDS011;48108;47.532;19.084;2023-10-19T14:51:01;22.30;;;12.85;;
62121;SDS011;48108;47.532;19.084;2023-10-19T14:54:05;26.25;;;14.45;;
62121;SDS011;48108;47.532;19.084;2023-10-19T14:57:08;28.90;;;15.35;;
62121;SDS011;48108;47.532;19.084;2023-10-19T15:00:12;26.08;;;15.45;;
62121;SDS011;48108;47.532;19.084;2023-10-19T15:03:24;23.58;;;14.20;;
62121;SDS011;48108;47.532;19.084;2023-10-19T15:06:28;26.27;;;14.32;;
62121;SDS011;48108;47.532;19.084;2023-10-19T15:09:36;27.40;;;14.07;;
62121;SDS011;48108;47.532;19.084;2023-10-19T15:12:39;28.33;;;15.90;;
62121;SDS011;48108;47.532;19.084;2023-10-19T15:15:42;29.42;;;15.13;;
62121;SDS011;48108;47.532;19.084;2023-10-19T15:20:16;37.47;;;17.37;;
62121;SDS011;48108;47.532;19.084;2023-10-19T15:23:19;28.80;;;15.18;;
62121;SDS011;48108;47.532;19.084;2023-10-19T15:26:23;30.40;;;16.27;;
62121;SDS011;48108;47.532;19.084;2023-10-19T15:29:26;30.42;;;16.30;;
62121;SDS011;48108;47.532;19.084;2023-10-19T15:32:30;31.40;;;15.00;;
62121;SDS011;48108;47.532;19.084;2023-10-19T15:35:33;32.78;;;14.98;;
62121;SDS011;48108;47.532;19.084;2023-10-19T15:38:39;31.60;;;15.85;;
62121;SDS011;48108;47.532;19.084;2023-10-19T15:41:42;33.22;;;16.80;;
62121;SDS011;48108;47.532;19.084;2023-10-19T15:44:45;36.00;;;15.98;;
62121;SDS011;48108;47.532;19.084;2023-10-19T15:47:48;39.28;;;17.98;;
62121;SDS011;48108;47.532;19.084;2023-10-19T15:50:55;36.55;;;17.73;;
62121;SDS011;48108;47.532;19.084;2023-10-19T15:53:58;39.75;;;17.77;;
62121;SDS011;48108;47.532;19.084;2023-10-19T15:57:04;38.85;;;16.70;;
